Time;durP1;ratioP1;P1;durP2;ratioP2;P2;SDS_P1;SDS_P2;PMS_P1;PMS_P2;Temp;Humidity;BMP_temperature;BMP_pressure;BME280_temperature;BME280_humidity;BME280_pressure;Samples;Min_cycle;Max_cycle;Signal;HPM_P1;HPM_P2
2022/11/01 00:01:17;;;;;;;18.77;7.60;;;;;;;;;;1753382;82;20984;-66
2022/11/01 00:03:44;;;;;;;22.27;7.90;;;;;;;;;;1753365;82;21063;-66
2022/11/01 00:06:10;;;;;;;20.97;8.88;;;;;;;;;;1760616;81;21023;-66
2022/11/01 00:08:36;;;;;;;20.62;9.78;;;;;;;;;;1743022;81;21027;-66
2022/11/01 00:11:03;;;;;;;23.10;9.30;;;;;;;;;;1744108;81;21036;-65
2022/11/01 00:13:29;;;;;;;18.00;8.03;;;;;;;;;;1725537;83;21039;-65
2022/11/01 00:15:57;;;;;;;17.62;7.37;;;;;;;;;;1745403;81;20972;-65
2022/11/01 00:18:24;;;;;;;17.67;7.65;;;;;;;;;;1761005;81;21085;-65
2022/11/01 00:20:51;;;;;;;18.45;6.85;;;;;;;;;;1760739;81;21492;-65
2022/11/01 00:23:18;;;;;;;13.32;6.08;;;;;;;;;;1760992;81;21015;-66
2022/11/01 00:25:44;;;;;;;16.23;6.90;;;;;;;;;;1761081;81;21022;-67
2022/11/01 00:28:10;;;;;;;14.83;6.47;;;;;;;;;;1761153;81;21046;-66
2022/11/01 00:30:38;;;;;;;13.60;6.00;;;;;;;;;;1761207;81;21018;-66
2022/11/01 00:33:05;;;;;;;11.78;6.03;;;;;;;;;;1761095;81;21050;-66
2022/11/01 00:35:31;;;;;;;11.30;4.83;;;;;;;;;;1760148;81;21050;-66
2022/11/01 00:37:58;;;;;;;9.30;5.22;;;;;;;;;;1761068;81;21023;-64
2022/11/01 00:40:24;;;;;;;9.78;4.47;;;;;;;;;;1760508;81;20996;-65
2022/11/01 00:42:50;;;;;;;11.97;5.15;;;;;;;;;;1761011;81;21063;-65
2022/11/01 00:45:16;;;;;;;7.67;3.87;;;;;;;;;;1731738;81;21087;-65
2022/11/01 00:47:45;;;;;;;10.50;4.22;;;;;;;;;;1760889;81;21013;-65
2022/11/01 00:50:12;;;;;;;9.00;4.35;;;;;;;;;;1761517;81;21527;-65
2022/11/01 00:52:39;;;;;;;6.97;3.98;;;;;;;;;;1760999;81;21436;-66
2022/11/01 00:55:07;;;;;;;8.15;3.70;;;;;;;;;;1761097;81;21058;-65
2022/11/01 00:57:33;;;;;;;7.35;3.55;;;;;;;;;;1731149;83;21055;-65
2022/11/01 01:00:00;;;;;;;6.28;3.62;;;;;;;;;;1731002;83;21063;-66
2022/11/01 01:02:26;;;;;;;6.95;3.40;;;;;;;;;;1746859;81;21055;-65
2022/11/01 01:04:53;;;;;;;5.17;2.87;;;;;;;;;;1721093;83;21097;-66
2022/11/01 01:07:19;;;;;;;6.05;3.00;;;;;;;;;;1711559;84;21049;-65
2022/11/01 01:09:45;;;;;;;6.80;3.75;;;;;;;;;;1712245;84;21040;-65
2022/11/01 01:12:12;;;;;;;6.58;3.47;;;;;;;;;;1711904;83;21024;-65
2022/11/01 01:14:38;;;;;;;7.33;3.10;;;;;;;;;;1711994;83;21096;-66
2022/11/01 01:17:04;;;;;;;8.10;3.77;;;;;;;;;;1686172;84;21154;-65
2022/11/01 01:19:30;;;;;;;5.95;3.30;;;;;;;;;;1677436;85;21058;-65
2022/11/01 01:21:56;;;;;;;7.10;3.37;;;;;;;;;;1677390;85;21094;-65
2022/11/01 01:24:23;;;;;;;8.25;3.58;;;;;;;;;;1695089;84;21055;-65
2022/11/01 01:26:49;;;;;;;6.78;3.42;;;;;;;;;;1711824;84;21067;-66
2022/11/01 01:29:16;;;;;;;7.15;3.80;;;;;;;;;;1711926;84;21029;-65
2022/11/01 01:31:43;;;;;;;6.47;3.47;;;;;;;;;;1711963;83;21100;-65
2022/11/01 01:34:10;;;;;;;7.80;3.72;;;;;;;;;;1711605;84;21060;-65
2022/11/01 01:36:36;;;;;;;7.37;3.77;;;;;;;;;;1711777;84;21058;-64
2022/11/01 01:39:03;;;;;;;8.13;4.10;;;;;;;;;;1712234;84;21066;-64
2022/11/01 01:44:32;;;;;;;9.38;4.55;;;;;;;;;;1711491;84;21062;-65
2022/11/01 01:47:00;;;;;;;11.55;5.65;;;;;;;;;;1711652;84;21110;-65
2022/11/01 01:49:26;;;;;;;10.78;5.85;;;;;;;;;;1711869;84;21089;-65
2022/11/01 01:51:52;;;;;;;12.53;6.00;;;;;;;;;;1711984;84;21082;-65
2022/11/01 01:54:18;;;;;;;11.03;5.62;;;;;;;;;;1711705;83;21119;-65
2022/11/01 01:56:44;;;;;;;12.60;5.72;;;;;;;;;;1711777;84;21086;-66
2022/11/01 01:59:10;;;;;;;10.10;5.58;;;;;;;;;;1712425;84;21137;-65
2022/11/01 02:04:39;;;;;;;16.37;6.78;;;;;;;;;;1707849;79;75966;-62
2022/11/01 02:07:07;;;;;;;13.85;7.10;;;;;;;;;;1759426;81;20973;-61
2022/11/01 02:09:34;;;;;;;12.75;6.20;;;;;;;;;;1763208;81;21075;-62
2022/11/01 02:12:01;;;;;;;12.90;6.65;;;;;;;;;;1763188;81;21004;-62
2022/11/01 02:14:28;;;;;;;10.75;5.20;;;;;;;;;;1756643;81;21024;-62
2022/11/01 02:16:56;;;;;;;13.80;5.97;;;;;;;;;;1761916;80;21569;-61
2022/11/01 02:19:28;;;;;;;13.78;6.00;;;;;;;;;;1730018;83;21091;-62
2022/11/01 02:21:56;;;;;;;16.40;6.67;;;;;;;;;;1730166;83;21028;-62
2022/11/01 02:24:24;;;;;;;14.68;6.17;;;;;;;;;;1725833;81;21048;-63
2022/11/01 02:27:02;;;;;;;11.45;6.42;;;;;;;;;;1762877;81;21070;-63
2022/11/01 02:29:30;;;;;;;16.95;6.45;;;;;;;;;;1762979;81;21036;-62
2022/11/01 02:32:16;;;;;;;17.57;8.45;;;;;;;;;;1747872;81;21079;-62
2022/11/01 02:34:44;;;;;;;17.62;8.90;;;;;;;;;;1738590;81;20973;-62
2022/11/01 02:37:14;;;;;;;17.95;7.62;;;;;;;;;;1753887;81;21087;-62
2022/11/01 02:39:42;;;;;;;15.95;7.45;;;;;;;;;;1730318;83;21052;-62
2022/11/01 02:42:09;;;;;;;16.17;7.67;;;;;;;;;;1730054;83;21079;-62
2022/11/01 02:44:37;;;;;;;13.40;6.47;;;;;;;;;;1730285;83;21064;-62
2022/11/01 02:47:03;;;;;;;13.25;7.00;;;;;;;;;;1738627;81;21516;-62
2022/11/01 02:49:30;;;;;;;13.68;6.22;;;;;;;;;;1729996;83;21071;-61
2022/11/01 02:51:57;;;;;;;14.20;7.12;;;;;;;;;;1700269;83;21575;-63
2022/11/01 02:54:27;;;;;;;11.97;5.62;;;;;;;;;;1730088;83;21112;-62
2022/11/01 02:56:53;;;;;;;10.05;6.37;;;;;;;;;;1730139;83;21586;-62
2022/11/01 02:59:23;;;;;;;10.80;5.97;;;;;;;;;;1730154;83;21060;-62
2022/11/01 03:01:51;;;;;;;10.05;6.20;;;;;;;;;;1757570;81;21055;-62
2022/11/01 03:04:17;;;;;;;11.88;6.30;;;;;;;;;;1770167;80;21059;-62
2022/11/01 03:06:45;;;;;;;9.60;5.08;;;;;;;;;;1786614;80;21386;-61
2022/11/01 03:09:12;;;;;;;9.45;5.35;;;;;;;;;;1786823;80;21019;-62
2022/11/01 03:11:49;;;;;;;11.33;5.55;;;;;;;;;;1786476;80;21575;-63
2022/11/01 03:14:32;;;;;;;9.78;5.53;;;;;;;;;;1786671;80;21052;-62
2022/11/01 03:17:01;;;;;;;11.83;5.72;;;;;;;;;;1786791;80;21440;-62
2022/11/01 03:19:37;;;;;;;10.20;5.83;;;;;;;;;;1786422;80;21579;-62
2022/11/01 03:22:15;;;;;;;9.75;4.83;;;;;;;;;;1782837;80;20993;-62
2022/11/01 03:24:43;;;;;;;11.45;4.97;;;;;;;;;;1768171;80;21071;-62
2022/11/01 03:27:24;;;;;;;11.97;5.50;;;;;;;;;;1746797;82;21075;-62
2022/11/01 03:29:55;;;;;;;9.08;4.80;;;;;;;;;;1754711;82;21087;-62
2022/11/01 03:32:20;;;;;;;10.90;5.58;;;;;;;;;;1755546;82;21019;-61
2022/11/01 03:34:46;;;;;;;9.40;4.60;;;;;;;;;;1748211;82;21020;-61
2022/11/01 03:37:12;;;;;;;10.65;5.12;;;;;;;;;;1763414;80;21020;-63
2022/11/01 03:39:43;;;;;;;9.30;4.42;;;;;;;;;;1780482;80;21113;-62
2022/11/01 03:42:11;;;;;;;10.95;4.53;;;;;;;;;;1787122;80;21094;-62
2022/11/01 03:44:38;;;;;;;11.20;5.00;;;;;;;;;;1760403;80;21081;-62
2022/11/01 03:47:04;;;;;;;10.90;5.40;;;;;;;;;;1755959;82;21035;-61
2022/11/01 03:49:30;;;;;;;10.78;5.87;;;;;;;;;;1755591;82;21091;-62
2022/11/01 03:51:57;;;;;;;11.85;4.95;;;;;;;;;;1756172;80;21005;-62
2022/11/01 03:54:23;;;;;;;12.07;5.17;;;;;;;;;;1755580;82;21032;-62
2022/11/01 03:56:49;;;;;;;9.98;5.12;;;;;;;;;;1781302;80;21035;-62
2022/11/01 03:59:15;;;;;;;9.98;4.72;;;;;;;;;;1785097;80;21570;-62
2022/11/01 04:01:42;;;;;;;10.10;4.95;;;;;;;;;;1755597;82;21067;-63
2022/11/01 04:04:09;;;;;;;12.25;6.30;;;;;;;;;;1754978;81;21064;-63
2022/11/01 04:06:35;;;;;;;12.95;5.97;;;;;;;;;;1755076;80;22160;-64
2022/11/01 04:09:01;;;;;;;15.45;7.72;;;;;;;;;;1753846;80;21072;-63
2022/11/01 04:11:28;;;;;;;14.73;7.17;;;;;;;;;;1746561;82;21011;-63
2022/11/01 04:20:31;;;;;;;16.02;8.40;;;;;;;;;;1747971;82;21035;-62
2022/11/01 04:21:52;;;;;;;20.70;12.05;;;;;;;;;;1752076;82;21021;-62
2022/11/01 04:24:20;;;;;;;21.40;12.65;;;;;;;;;;1747241;80;21007;-62
2022/11/01 04:26:47;;;;;;;21.65;10.65;;;;;;;;;;1723199;83;21065;-62
2022/11/01 04:29:13;;;;;;;18.95;9.73;;;;;;;;;;1746567;82;21063;-63
2022/11/01 04:31:39;;;;;;;60.28;28.38;;;;;;;;;;1751700;82;21531;-63
2022/11/01 04:34:06;;;;;;;69.67;29.37;;;;;;;;;;1748358;82;21082;-63
2022/11/01 04:36:32;;;;;;;72.20;31.97;;;;;;;;;;1748333;82;21091;-62
2022/11/01 04:39:00;;;;;;;73.92;34.98;;;;;;;;;;1756476;80;21533;-62
2022/11/01 04:41:27;;;;;;;60.10;28.67;;;;;;;;;;1753714;80;21025;-61
2022/11/01 04:43:56;;;;;;;47.25;22.75;;;;;;;;;;1748232;82;21064;-61
2022/11/01 04:46:22;;;;;;;33.35;16.90;;;;;;;;;;1748338;82;21519;-61
2022/11/01 04:48:48;;;;;;;27.62;12.60;;;;;;;;;;1748213;82;21003;-61
2022/11/01 04:51:15;;;;;;;21.57;11.25;;;;;;;;;;1750626;82;21486;-61
2022/11/01 04:53:41;;;;;;;23.30;11.68;;;;;;;;;;1752372;80;21064;-61
2022/11/01 04:56:09;;;;;;;18.75;9.48;;;;;;;;;;1762050;80;21047;-61
2022/11/01 04:58:35;;;;;;;21.25;8.80;;;;;;;;;;1782408;80;21090;-62
2022/11/01 05:01:05;;;;;;;14.18;7.72;;;;;;;;;;1748862;82;21043;-62
2022/11/01 05:03:33;;;;;;;17.07;7.20;;;;;;;;;;1748166;81;21130;-62
2022/11/01 05:05:59;;;;;;;12.98;6.95;;;;;;;;;;1748031;82;21110;-62
2022/11/01 06:11:19;;;;;;;11.48;6.30;;;;;;;;;;1802520;78;22933;-74
2022/11/01 06:13:45;;;;;;;10.48;6.33;;;;;;;;;;1795678;78;22437;-75
2022/11/01 06:16:12;;;;;;;9.58;5.10;;;;;;;;;;1796694;79;21354;-74
2022/11/01 06:18:38;;;;;;;10.53;5.30;;;;;;;;;;1815760;78;21493;-75
2022/11/01 06:21:05;;;;;;;10.70;5.22;;;;;;;;;;1819064;78;21013;-74
2022/11/01 06:23:32;;;;;;;8.55;4.65;;;;;;;;;;1807252;79;21504;-75
2022/11/01 06:25:59;;;;;;;7.67;4.35;;;;;;;;;;1792559;79;21013;-78
2022/11/01 06:28:25;;;;;;;10.45;5.15;;;;;;;;;;1786325;78;21546;-74
2022/11/01 06:30:51;;;;;;;9.80;5.15;;;;;;;;;;1774960;79;20972;-74
2022/11/01 06:33:19;;;;;;;8.95;4.78;;;;;;;;;;1806920;79;21523;-74
2022/11/01 06:35:45;;;;;;;9.03;4.97;;;;;;;;;;1795610;79;21029;-76
2022/11/01 06:38:15;;;;;;;11.53;5.20;;;;;;;;;;1789786;79;21157;-75
2022/11/01 06:40:42;;;;;;;9.08;4.65;;;;;;;;;;1795563;79;21094;-74
2022/11/01 06:43:08;;;;;;;9.93;4.60;;;;;;;;;;1787029;78;20968;-73
2022/11/01 06:45:34;;;;;;;8.68;4.72;;;;;;;;;;1790772;78;21059;-74
2022/11/01 06:48:00;;;;;;;7.97;4.35;;;;;;;;;;1792163;79;21462;-73
2022/11/01 06:50:27;;;;;;;8.83;4.70;;;;;;;;;;1792511;80;21076;-73
2022/11/01 06:52:58;;;;;;;6.87;4.33;;;;;;;;;;1794036;79;21554;-73
2022/11/01 06:55:25;;;;;;;10.30;4.78;;;;;;;;;;1791235;78;21043;-73
2022/11/01 06:57:54;;;;;;;8.53;4.33;;;;;;;;;;1793375;78;21468;-73
2022/11/01 07:00:21;;;;;;;8.30;4.03;;;;;;;;;;1795804;79;21020;-72
2022/11/01 07:02:48;;;;;;;7.28;4.00;;;;;;;;;;1757840;80;22206;-73
2022/11/01 07:05:14;;;;;;;7.75;4.22;;;;;;;;;;1765864;80;21575;-73
2022/11/01 07:07:41;;;;;;;7.87;4.65;;;;;;;;;;1764897;80;21013;-73
2022/11/01 07:10:08;;;;;;;7.70;4.12;;;;;;;;;;1775401;80;21033;-73
2022/11/01 07:12:34;;;;;;;7.75;3.65;;;;;;;;;;1771999;80;21522;-73
2022/11/01 07:15:00;;;;;;;8.95;4.15;;;;;;;;;;1766873;80;21025;-73
2022/11/01 07:17:27;;;;;;;9.63;4.67;;;;;;;;;;1770337;80;21552;-73
2022/11/01 07:19:54;;;;;;;7.85;4.72;;;;;;;;;;1773525;80;21064;-77
2022/11/01 07:22:20;;;;;;;10.18;4.00;;;;;;;;;;1769613;80;21012;-73
2022/11/01 07:24:47;;;;;;;8.80;4.67;;;;;;;;;;1771267;80;21516;-73
2022/11/01 07:27:13;;;;;;;10.08;4.70;;;;;;;;;;1783963;80;21591;-74
2022/11/01 07:29:40;;;;;;;10.88;4.75;;;;;;;;;;1774192;80;21052;-74
2022/11/01 07:32:07;;;;;;;7.40;4.10;;;;;;;;;;1753360;80;21060;-73
2022/11/01 07:34:33;;;;;;;11.30;4.50;;;;;;;;;;1759136;80;21080;-73
2022/11/01 07:36:59;;;;;;;7.70;4.05;;;;;;;;;;1752374;81;21037;-72
2022/11/01 07:39:26;;;;;;;8.13;4.28;;;;;;;;;;1753272;82;21032;-72
2022/11/01 07:41:53;;;;;;;6.90;3.90;;;;;;;;;;1753221;82;21040;-72
2022/11/01 07:44:19;;;;;;;7.42;4.22;;;;;;;;;;1753579;80;21021;-73
2022/11/01 07:46:45;;;;;;;11.05;5.17;;;;;;;;;;1753437;80;21095;-73
2022/11/01 07:49:12;;;;;;;8.35;4.58;;;;;;;;;;1753104;82;21044;-73
2022/11/01 07:51:39;;;;;;;10.68;4.45;;;;;;;;;;1753186;82;21033;-73
2022/11/01 07:54:05;;;;;;;8.13;4.85;;;;;;;;;;1753225;82;21021;-73
2022/11/01 07:56:31;;;;;;;8.53;4.42;;;;;;;;;;1753199;82;21060;-72
2022/11/01 07:58:58;;;;;;;7.45;3.98;;;;;;;;;;1753487;82;21025;-73
2022/11/01 08:01:24;;;;;;;9.55;4.12;;;;;;;;;;1781957;80;21069;-73
2022/11/01 08:03:50;;;;;;;10.25;3.77;;;;;;;;;;1771579;80;21028;-71
2022/11/01 08:06:17;;;;;;;8.40;3.83;;;;;;;;;;1758321;80;21524;-72
2022/11/01 08:08:44;;;;;;;4.97;3.02;;;;;;;;;;1764795;80;21036;-72
2022/11/01 08:11:11;;;;;;;5.25;2.90;;;;;;;;;;1770470;80;21027;-72
2022/11/01 08:13:39;;;;;;;6.30;3.15;;;;;;;;;;1754311;80;21067;-72
2022/11/01 08:16:06;;;;;;;9.98;4.10;;;;;;;;;;1770327;80;21048;-72
2022/11/01 08:18:32;;;;;;;10.88;4.37;;;;;;;;;;1763057;79;21531;-74
2022/11/01 08:20:58;;;;;;;8.05;3.27;;;;;;;;;;1782531;80;21453;-73
2022/11/01 08:23:25;;;;;;;7.12;3.55;;;;;;;;;;1758794;80;21040;-74
2022/11/01 08:25:51;;;;;;;8.00;3.42;;;;;;;;;;1768539;80;21602;-73
2022/11/01 08:58:43;;;;;;;7.35;3.40;;;;;;;;;;1790819;80;23044;-61
2022/11/01 09:01:10;;;;;;;8.53;3.25;;;;;;;;;;1734799;82;21034;-61
2022/11/01 09:03:38;;;;;;;7.28;3.27;;;;;;;;;;1741702;82;21341;-60
2022/11/01 09:06:05;;;;;;;5.60;2.90;;;;;;;;;;1737656;82;21558;-61
2022/11/01 09:08:32;;;;;;;4.95;2.90;;;;;;;;;;1739958;81;21060;-62
2022/11/01 09:10:59;;;;;;;6.12;3.60;;;;;;;;;;1738569;82;21080;-61
2022/11/01 09:13:26;;;;;;;6.50;3.00;;;;;;;;;;1735862;82;21588;-62
2022/11/01 09:15:53;;;;;;;5.60;2.72;;;;;;;;;;1738648;82;21124;-61
2022/11/01 09:18:19;;;;;;;5.90;3.17;;;;;;;;;;1742563;82;21048;-62
2022/11/01 09:20:47;;;;;;;5.90;3.10;;;;;;;;;;1738236;81;21052;-62
2022/11/01 09:23:15;;;;;;;5.03;3.12;;;;;;;;;;1724399;81;21092;-62
2022/11/01 09:25:42;;;;;;;5.05;2.75;;;;;;;;;;1715690;82;21083;-61
2022/11/01 09:28:09;;;;;;;6.65;2.70;;;;;;;;;;1730349;81;21048;-61
2022/11/01 09:30:35;;;;;;;5.45;2.90;;;;;;;;;;1722940;82;21042;-63
2022/11/01 09:33:04;;;;;;;5.47;2.77;;;;;;;;;;1749055;81;21095;-62
2022/11/01 09:35:30;;;;;;;4.35;2.50;;;;;;;;;;1735310;82;20945;-63
2022/11/01 09:37:57;;;;;;;7.42;2.80;;;;;;;;;;1742113;82;21539;-63
2022/11/01 09:40:24;;;;;;;6.83;3.10;;;;;;;;;;1736384;82;21012;-62
2022/11/01 09:42:50;;;;;;;6.20;3.35;;;;;;;;;;1736889;82;21024;-61
2022/11/01 09:45:20;;;;;;;5.72;2.92;;;;;;;;;;1740679;82;21127;-62
2022/11/01 09:47:49;;;;;;;5.17;2.80;;;;;;;;;;1726921;82;21084;-62
2022/11/01 09:50:18;;;;;;;5.90;2.50;;;;;;;;;;1700170;83;21066;-63
2022/11/01 09:52:44;;;;;;;4.83;2.45;;;;;;;;;;1701689;83;21099;-61
2022/11/01 09:55:13;;;;;;;6.12;3.17;;;;;;;;;;1706791;83;21525;-61
2022/11/01 09:57:41;;;;;;;5.85;3.00;;;;;;;;;;1700130;83;21072;-61
2022/11/01 10:00:15;;;;;;;4.37;2.70;;;;;;;;;;1702393;83;21076;-62
2022/11/01 10:02:48;;;;;;;3.55;2.20;;;;;;;;;;1698453;83;21432;-62
2022/11/01 10:05:19;;;;;;;5.37;2.40;;;;;;;;;;1676795;83;21114;-62
2022/11/01 10:07:47;;;;;;;4.87;2.33;;;;;;;;;;1666924;84;21082;-61
2022/11/01 10:10:25;;;;;;;6.85;2.33;;;;;;;;;;1695294;83;21105;-61
2022/11/01 10:12:53;;;;;;;4.10;2.60;;;;;;;;;;1695754;84;21062;-60
2022/11/01 10:15:34;;;;;;;4.62;2.42;;;;;;;;;;1694107;83;21048;-61
2022/11/01 10:18:12;;;;;;;4.20;2.45;;;;;;;;;;1695175;83;21040;-62
2022/11/01 10:20:39;;;;;;;3.83;2.27;;;;;;;;;;1709283;83;21062;-61
2022/11/01 10:23:05;;;;;;;4.92;2.05;;;;;;;;;;1702232;84;22221;-61
2022/11/01 10:25:32;;;;;;;3.75;2.30;;;;;;;;;;1702490;83;21108;-61
2022/11/01 10:28:19;;;;;;;5.28;2.52;;;;;;;;;;1704014;83;21052;-62
2022/11/01 10:30:46;;;;;;;5.03;2.40;;;;;;;;;;1704671;83;21015;-61
2022/11/01 10:33:24;;;;;;;5.50;2.50;;;;;;;;;;1705141;83;20978;-61
2022/11/01 10:35:55;;;;;;;4.60;2.40;;;;;;;;;;1710465;83;21067;-61
2022/11/01 10:38:23;;;;;;;6.25;2.33;;;;;;;;;;1699927;83;21023;-61
2022/11/01 10:40:52;;;;;;;5.00;2.55;;;;;;;;;;1692137;83;21035;-61
2022/11/01 10:43:18;;;;;;;5.55;3.00;;;;;;;;;;1693903;83;21097;-60
2022/11/01 10:45:45;;;;;;;6.53;2.70;;;;;;;;;;1703126;83;21032;-60
2022/11/01 10:48:14;;;;;;;4.75;2.40;;;;;;;;;;1698668;83;21095;-60
2022/11/01 10:50:40;;;;;;;5.00;2.80;;;;;;;;;;1696454;83;21098;-62
2022/11/01 10:53:10;;;;;;;5.00;2.95;;;;;;;;;;1700020;83;21076;-61
2022/11/01 11:09:17;;;;;;;5.45;3.27;;;;;;;;;;1758372;79;23088;-71
2022/11/01 11:11:44;;;;;;;5.45;2.90;;;;;;;;;;1739806;81;21027;-71
2022/11/01 11:14:10;;;;;;;4.70;2.70;;;;;;;;;;1755366;81;21028;-71
2022/11/01 11:16:39;;;;;;;4.92;2.62;;;;;;;;;;1743719;81;21071;-71
2022/11/01 11:19:18;;;;;;;5.45;3.08;;;;;;;;;;1734081;81;21004;-70
2022/11/01 11:21:44;;;;;;;5.15;2.77;;;;;;;;;;1730645;83;21063;-72
2022/11/01 11:24:18;;;;;;;6.17;2.62;;;;;;;;;;1740139;81;21077;-71
2022/11/01 11:26:42;;;;;;;6.35;3.00;;;;;;;;;;1737340;82;21040;-70
2022/11/01 11:29:09;;;;;;;6.75;3.40;;;;;;;;;;1744302;81;21615;-70
2022/11/01 11:31:35;;;;;;;6.58;3.15;;;;;;;;;;1730076;81;20995;-71
2022/11/01 11:34:06;;;;;;;7.53;3.60;;;;;;;;;;1760120;81;21007;-72
2022/11/01 11:36:34;;;;;;;6.30;3.67;;;;;;;;;;1734256;81;21670;-72
2022/11/01 11:39:00;;;;;;;8.63;4.25;;;;;;;;;;1745214;81;21010;-72
2022/11/01 11:41:30;;;;;;;7.35;2.95;;;;;;;;;;1733617;82;21001;-71
2022/11/01 11:43:57;;;;;;;5.90;3.92;;;;;;;;;;1738479;81;21031;-72
2022/11/01 11:46:23;;;;;;;5.00;3.30;;;;;;;;;;1748835;81;21498;-72
2022/11/01 11:48:51;;;;;;;6.95;2.70;;;;;;;;;;1735467;81;21024;-71
2022/11/01 11:51:19;;;;;;;4.45;2.58;;;;;;;;;;1736940;81;21060;-70
2022/11/01 11:54:04;;;;;;;4.20;2.47;;;;;;;;;;1734068;81;21532;-71
2022/11/01 11:56:30;;;;;;;4.72;2.70;;;;;;;;;;1745451;80;20999;-70
2022/11/01 11:58:56;;;;;;;6.87;2.83;;;;;;;;;;1762609;80;22106;-72
2022/11/01 12:01:23;;;;;;;5.90;2.83;;;;;;;;;;1767145;80;21294;-71
2022/11/01 12:03:56;;;;;;;4.33;2.33;;;;;;;;;;1732796;81;21032;-71
2022/11/01 12:06:24;;;;;;;4.83;2.50;;;;;;;;;;1730150;83;22053;-72
2022/11/01 12:08:53;;;;;;;4.80;2.60;;;;;;;;;;1736919;81;21082;-73
2022/11/01 12:11:21;;;;;;;6.35;2.52;;;;;;;;;;1731069;81;21083;-72
2022/11/01 12:14:01;;;;;;;4.67;2.77;;;;;;;;;;1757271;80;21016;-73
2022/11/01 12:16:27;;;;;;;5.05;2.67;;;;;;;;;;1740853;80;20975;-72
2022/11/01 12:18:54;;;;;;;6.08;3.37;;;;;;;;;;1748021;80;21051;-72
2022/11/01 12:21:37;;;;;;;6.05;3.10;;;;;;;;;;1758822;81;21068;-73
2022/11/01 12:24:05;;;;;;;6.17;3.13;;;;;;;;;;1735300;81;21274;-72
2022/11/01 12:26:33;;;;;;;5.22;3.15;;;;;;;;;;1745847;81;21543;-72
2022/11/01 12:29:07;;;;;;;5.33;3.00;;;;;;;;;;1739873;81;21039;-72
2022/11/01 12:31:34;;;;;;;4.87;3.27;;;;;;;;;;1743402;79;21085;-71
2022/11/01 12:34:07;;;;;;;7.22;3.58;;;;;;;;;;1738761;80;21003;-71
2022/11/01 12:36:41;;;;;;;6.15;3.33;;;;;;;;;;1736443;80;21024;-71
2022/11/01 12:39:11;;;;;;;7.00;3.27;;;;;;;;;;1744493;80;21558;-71
2022/11/01 12:41:42;;;;;;;6.80;3.47;;;;;;;;;;1742294;80;21032;-71
2022/11/01 12:44:16;;;;;;;7.25;3.20;;;;;;;;;;1747128;80;21117;-71
2022/11/01 12:46:46;;;;;;;6.65;3.33;;;;;;;;;;1736491;81;21111;-70
2022/11/01 12:49:17;;;;;;;7.25;3.40;;;;;;;;;;1742093;81;21139;-71
2022/11/01 12:51:45;;;;;;;5.45;2.80;;;;;;;;;;1747405;81;21055;-71
2022/11/01 12:54:27;;;;;;;5.78;2.80;;;;;;;;;;1750138;81;21525;-71
2022/11/01 12:56:55;;;;;;;6.72;3.20;;;;;;;;;;1738984;80;21011;-71
2022/11/01 12:59:23;;;;;;;7.58;3.02;;;;;;;;;;1745476;80;21113;-71
2022/11/01 13:01:51;;;;;;;5.80;3.33;;;;;;;;;;1740680;80;21063;-70
2022/11/01 13:04:34;;;;;;;6.95;3.15;;;;;;;;;;1746170;80;21070;-70
2022/11/01 13:07:11;;;;;;;8.98;3.50;;;;;;;;;;1744626;80;21649;-70
2022/11/01 13:09:51;;;;;;;8.18;3.60;;;;;;;;;;1738756;80;21024;-69
2022/11/01 13:12:23;;;;;;;6.78;3.60;;;;;;;;;;1765098;80;21040;-69
2022/11/01 13:14:51;;;;;;;7.40;3.25;;;;;;;;;;1763490;80;21492;-69
2022/11/01 13:17:19;;;;;;;7.12;3.37;;;;;;;;;;1761521;80;21532;-71
2022/11/01 13:19:52;;;;;;;7.65;3.72;;;;;;;;;;1760683;80;21068;-70
2022/11/01 13:22:21;;;;;;;11.00;3.80;;;;;;;;;;1763024;80;22466;-70
2022/11/01 13:24:49;;;;;;;20.15;4.20;;;;;;;;;;1763574;80;21055;-73
2022/11/01 13:27:20;;;;;;;9.78;3.87;;;;;;;;;;1761790;80;21074;-72
2022/11/01 13:29:58;;;;;;;12.03;4.53;;;;;;;;;;1742804;81;21068;-72
2022/11/01 13:32:25;;;;;;;9.30;4.65;;;;;;;;;;1704215;82;22318;-69
2022/11/01 13:34:57;;;;;;;14.10;4.85;;;;;;;;;;1692937;82;21064;-70
2022/11/01 13:37:28;;;;;;;9.63;4.35;;;;;;;;;;1720021;81;21057;-69
2022/11/01 13:40:06;;;;;;;8.68;3.90;;;;;;;;;;1729584;81;21080;-70
2022/11/01 13:42:34;;;;;;;10.63;3.77;;;;;;;;;;1729128;81;21114;-69
2022/11/01 13:45:03;;;;;;;7.55;3.80;;;;;;;;;;1740175;81;21116;-69
2022/11/01 13:47:31;;;;;;;10.65;5.00;;;;;;;;;;1738020;81;21051;-69
2022/11/01 13:50:15;;;;;;;9.45;3.67;;;;;;;;;;1728622;81;21044;-69
2022/11/01 13:55:31;;;;;;;8.83;3.40;;;;;;;;;;1767558;78;21577;-72
2022/11/01 14:01:25;;;;;;;6.78;3.42;;;;;;;;;;1723074;83;21064;-71
2022/11/01 14:04:07;;;;;;;11.48;3.65;;;;;;;;;;1722947;83;21049;-71
2022/11/01 14:06:36;;;;;;;10.35;4.25;;;;;;;;;;1666916;83;21080;-72
2022/11/01 14:09:13;;;;;;;14.28;4.65;;;;;;;;;;1723215;83;21057;-72
2022/11/01 14:11:46;;;;;;;11.28;5.20;;;;;;;;;;1722531;83;21602;-71
2022/11/01 14:14:34;;;;;;;14.25;5.10;;;;;;;;;;1723236;83;21045;-71
2022/11/01 14:17:22;;;;;;;11.08;6.10;;;;;;;;;;1723027;83;21072;-72
2022/11/01 14:19:50;;;;;;;11.90;6.03;;;;;;;;;;1722884;83;21040;-70
2022/11/01 14:22:24;;;;;;;13.65;5.85;;;;;;;;;;1723118;83;21072;-70
2022/11/01 14:24:51;;;;;;;15.93;7.08;;;;;;;;;;1723278;83;21049;-71
2022/11/01 14:27:23;;;;;;;14.28;7.17;;;;;;;;;;1723062;83;21005;-71
2022/11/01 14:29:50;;;;;;;21.62;7.33;;;;;;;;;;1700641;83;21574;-70
2022/11/01 14:32:17;;;;;;;57.58;10.00;;;;;;;;;;1722898;83;21032;-70
2022/11/01 14:34:44;;;;;;;45.35;10.70;;;;;;;;;;1723256;83;21515;-71
2022/11/01 14:37:12;;;;;;;33.92;12.25;;;;;;;;;;1723172;83;21096;-70
2022/11/01 14:39:40;;;;;;;32.83;13.83;;;;;;;;;;1723082;83;21552;-71
2022/11/01 14:42:09;;;;;;;39.67;13.80;;;;;;;;;;1723112;83;21017;-70
2022/11/01 14:44:37;;;;;;;54.90;15.78;;;;;;;;;;1722887;83;21048;-70
2022/11/01 14:47:05;;;;;;;35.65;10.63;;;;;;;;;;1722883;83;21113;-73
2022/11/01 14:49:33;;;;;;;154.00;15.95;;;;;;;;;;1721535;83;21889;-70
2022/11/01 14:52:07;;;;;;;59.18;11.35;;;;;;;;;;1691021;85;21048;-70
2022/11/01 14:54:35;;;;;;;72.45;12.43;;;;;;;;;;1691328;83;21543;-70
2022/11/01 14:57:01;;;;;;;39.23;9.25;;;;;;;;;;1697650;83;21088;-70
2022/11/01 14:59:30;;;;;;;42.27;10.35;;;;;;;;;;1696362;82;21072;-70
2022/11/01 15:01:57;;;;;;;58.08;12.00;;;;;;;;;;1697103;82;21028;-70
2022/11/01 15:04:26;;;;;;;43.48;11.95;;;;;;;;;;1697150;82;21740;-71
2022/11/01 15:06:52;;;;;;;27.07;10.60;;;;;;;;;;1696641;82;21089;-70
2022/11/01 15:09:23;;;;;;;26.77;12.13;;;;;;;;;;1695088;82;21048;-70
2022/11/01 15:11:50;;;;;;;38.88;12.23;;;;;;;;;;1697468;82;21676;-69
2022/11/01 15:14:20;;;;;;;39.20;10.90;;;;;;;;;;1700849;82;21002;-75
2022/11/01 15:29:09;;;;;;;62.00;19.52;;;;;;;;;;1794296;78;23010;-65
2022/11/01 15:31:37;;;;;;;51.55;17.98;;;;;;;;;;1759087;80;21025;-64
2022/11/01 15:34:05;;;;;;;49.00;18.05;;;;;;;;;;1749929;80;21028;-64
2022/11/01 15:36:32;;;;;;;47.50;17.05;;;;;;;;;;1759763;80;21537;-64
2022/11/01 15:39:00;;;;;;;42.08;18.87;;;;;;;;;;1760586;80;21008;-64
2022/11/01 15:41:33;;;;;;;53.00;17.40;;;;;;;;;;1759862;80;21026;-65
2022/11/01 15:44:00;;;;;;;91.55;19.05;;;;;;;;;;1766139;80;21032;-65
2022/11/01 15:46:27;;;;;;;69.67;17.57;;;;;;;;;;1752311;80;21024;-65
2022/11/01 15:48:55;;;;;;;245.82;28.38;;;;;;;;;;1759699;81;21576;-65
2022/11/01 15:51:23;;;;;;;178.40;25.27;;;;;;;;;;1760397;80;21072;-64
2022/11/01 15:53:51;;;;;;;158.47;21.62;;;;;;;;;;1760561;81;21040;-64
2022/11/01 15:56:19;;;;;;;109.92;20.80;;;;;;;;;;1763297;80;21016;-65
2022/11/01 15:58:47;;;;;;;103.25;23.12;;;;;;;;;;1758637;80;20985;-66
2022/11/01 16:01:14;;;;;;;97.15;21.97;;;;;;;;;;1757797;80;21047;-65
2022/11/01 16:03:42;;;;;;;81.35;24.07;;;;;;;;;;1757916;80;21023;-64
2022/11/01 16:06:20;;;;;;;60.63;21.57;;;;;;;;;;1762545;80;21043;-64
2022/11/01 16:08:48;;;;;;;96.08;33.88;;;;;;;;;;1764152;80;21470;-63
2022/11/01 16:11:16;;;;;;;103.62;28.23;;;;;;;;;;1759464;81;21136;-63
2022/11/01 16:13:47;;;;;;;88.12;33.42;;;;;;;;;;1761202;80;21014;-64
2022/11/01 16:16:13;;;;;;;140.28;33.28;;;;;;;;;;1756606;80;21448;-64
2022/11/01 16:18:40;;;;;;;90.95;40.12;;;;;;;;;;1746148;80;21079;-64
2022/11/01 16:21:23;;;;;;;76.15;32.73;;;;;;;;;;1722585;82;21098;-65
2022/11/01 16:23:58;;;;;;;84.60;34.67;;;;;;;;;;1716780;81;21086;-63
2022/11/01 16:26:24;;;;;;;60.63;29.27;;;;;;;;;;1723167;81;21036;-65
2022/11/01 16:28:52;;;;;;;49.65;22.67;;;;;;;;;;1718754;82;21075;-65
2022/11/01 16:31:25;;;;;;;47.90;20.92;;;;;;;;;;1718615;83;21152;-64
2022/11/01 16:33:52;;;;;;;41.83;17.32;;;;;;;;;;1721685;82;22251;-65
2022/11/01 16:36:20;;;;;;;79.67;24.20;;;;;;;;;;1715133;82;21036;-64
2022/11/01 16:38:47;;;;;;;141.95;37.85;;;;;;;;;;1712763;82;22717;-65
2022/11/01 16:41:23;;;;;;;112.90;32.90;;;;;;;;;;1708874;82;21625;-66
2022/11/01 16:43:53;;;;;;;86.72;24.63;;;;;;;;;;1720813;82;21017;-65
2022/11/01 16:46:20;;;;;;;58.60;19.67;;;;;;;;;;1711595;82;21032;-64
2022/11/01 16:48:53;;;;;;;59.60;18.87;;;;;;;;;;1717776;82;21044;-65
2022/11/01 16:51:20;;;;;;;55.15;20.17;;;;;;;;;;1710026;82;20983;-65
2022/11/01 16:53:46;;;;;;;149.07;41.80;;;;;;;;;;1714825;82;21096;-65
2022/11/01 16:56:14;;;;;;;162.07;45.10;;;;;;;;;;1710984;82;21053;-64
2022/11/01 16:58:41;;;;;;;155.37;44.77;;;;;;;;;;1711043;82;21017;-63